Time;durP1;ratioP1;P1;durP2;ratioP2;P2;SDS_P1;SDS_P2;PMS_P1;PMS_P2;Temp;Humidity;BMP_temperature;BMP_pressure;BME280_temperature;BME280_humidity;BME280_pressure;Samples;Min_cycle;Max_cycle;Signal;HPM_P1;HPM_P2
2022/04/25 00:01:11;;;;;;;14.93;5.80;;;;;;;;;;4844704;29;20483;-85
2022/04/25 00:03:38;;;;;;;12.47;5.27;;;;;;;;;;4844603;29;20451;-85
2022/04/25 00:06:06;;;;;;;18.33;6.50;;;;;;;;;;4859940;29;20450;-85
2022/04/25 00:08:34;;;;;;;12.90;5.07;;;;;;;;;;4860675;29;20453;-85
2022/04/25 00:11:01;;;;;;;21.00;5.80;;;;;;;;;;4859701;29;20943;-85
2022/04/25 00:13:28;;;;;;;15.73;5.73;;;;;;;;;;4859586;29;20456;-85
2022/04/25 00:15:56;;;;;;;15.33;4.60;;;;;;;;;;4859612;29;20562;-85
2022/04/25 00:18:23;;;;;;;16.93;5.33;;;;;;;;;;4844587;29;20499;-85
2022/04/25 00:20:51;;;;;;;14.70;4.80;;;;;;;;;;4844606;29;20498;-85
2022/04/25 00:23:18;;;;;;;14.97;5.30;;;;;;;;;;4859648;29;20489;-85
2022/04/25 00:25:45;;;;;;;28.80;5.37;;;;;;;;;;4844346;29;20439;-85
2022/04/25 00:28:13;;;;;;;14.93;4.60;;;;;;;;;;4859487;29;20451;-85
2022/04/25 00:30:40;;;;;;;13.40;5.03;;;;;;;;;;4844396;29;20439;-85
2022/04/25 00:33:08;;;;;;;21.03;5.13;;;;;;;;;;4859917;29;20476;-85
2022/04/25 00:35:36;;;;;;;16.20;5.50;;;;;;;;;;4847512;29;20479;-85
2022/04/25 00:38:04;;;;;;;20.53;5.93;;;;;;;;;;4847843;29;20455;-85
2022/04/25 00:40:32;;;;;;;23.67;5.70;;;;;;;;;;4864146;29;21033;-85
2022/04/25 00:42:59;;;;;;;8.43;4.27;;;;;;;;;;4862688;29;20939;-85
2022/04/25 00:45:26;;;;;;;14.93;4.97;;;;;;;;;;4862913;29;20538;-85
2022/04/25 00:47:54;;;;;;;14.57;5.00;;;;;;;;;;4863512;29;20434;-85
2022/04/25 00:50:22;;;;;;;19.53;5.53;;;;;;;;;;4864150;29;20478;-85
2022/04/25 00:52:50;;;;;;;13.23;4.40;;;;;;;;;;4864128;29;20447;-85
2022/04/25 00:55:19;;;;;;;13.70;4.37;;;;;;;;;;4847543;29;20543;-85
2022/04/25 00:57:46;;;;;;;11.50;4.67;;;;;;;;;;4864112;29;20436;-85
2022/04/25 01:00:14;;;;;;;16.67;5.67;;;;;;;;;;4862707;29;20482;-85
2022/04/25 01:02:41;;;;;;;14.73;5.37;;;;;;;;;;4863031;29;20431;-85
2022/04/25 01:05:09;;;;;;;16.83;4.80;;;;;;;;;;4847323;29;20455;-85
2022/04/25 01:07:37;;;;;;;15.73;5.97;;;;;;;;;;4862450;29;20447;-85
2022/04/25 01:10:05;;;;;;;12.83;5.57;;;;;;;;;;4862533;29;20450;-85
2022/04/25 01:12:33;;;;;;;14.03;6.30;;;;;;;;;;4862705;29;20534;-85
2022/04/25 01:15:01;;;;;;;11.07;5.70;;;;;;;;;;4862786;29;20582;-85
2022/04/25 01:17:28;;;;;;;24.17;6.60;;;;;;;;;;4862871;29;20447;-85
2022/04/25 01:19:55;;;;;;;8.50;5.27;;;;;;;;;;4862677;29;20478;-85
2022/04/25 01:22:43;;;;;;;17.27;7.07;;;;;;;;;;4847352;29;20522;-85
2022/04/25 01:27:56;;;;;;;14.30;6.40;;;;;;;;;;4862677;29;20454;-85
2022/04/25 01:30:23;;;;;;;12.47;5.17;;;;;;;;;;4863456;29;20550;-85
2022/04/25 01:32:52;;;;;;;14.70;7.10;;;;;;;;;;4847047;29;20534;-85
2022/04/25 01:35:19;;;;;;;17.10;5.53;;;;;;;;;;4862331;29;20928;-85
2022/04/25 01:37:47;;;;;;;15.33;5.10;;;;;;;;;;4862069;29;20458;-85
2022/04/25 01:40:14;;;;;;;17.90;6.83;;;;;;;;;;4862155;29;20443;-85
2022/04/25 01:42:42;;;;;;;12.90;5.53;;;;;;;;;;4862196;29;20534;-85
2022/04/25 01:45:09;;;;;;;10.07;5.17;;;;;;;;;;4862001;29;20978;-85
2022/04/25 01:47:37;;;;;;;16.83;5.40;;;;;;;;;;4846353;29;20898;-85
2022/04/25 01:50:04;;;;;;;15.73;5.97;;;;;;;;;;4862210;29;20484;-85
2022/04/25 01:52:32;;;;;;;14.70;7.00;;;;;;;;;;4862514;29;20857;-84
2022/04/25 01:55:01;;;;;;;11.67;5.07;;;;;;;;;;4846686;29;20842;-85
2022/04/25 01:57:29;;;;;;;10.47;5.40;;;;;;;;;;4862198;29;20494;-85
2022/04/25 01:59:56;;;;;;;13.93;5.13;;;;;;;;;;4862083;29;20955;-85
2022/04/25 02:02:23;;;;;;;13.73;5.80;;;;;;;;;;4862079;29;20502;-85
2022/04/25 02:04:51;;;;;;;15.03;5.50;;;;;;;;;;4862902;29;20919;-85
2022/04/25 02:07:18;;;;;;;10.87;5.43;;;;;;;;;;4861564;29;20553;-85
2022/04/25 02:09:45;;;;;;;11.40;5.10;;;;;;;;;;4862540;29;21041;-85
2022/04/25 02:12:13;;;;;;;19.47;6.43;;;;;;;;;;4861648;29;20447;-85
2022/04/25 02:14:42;;;;;;;16.97;6.60;;;;;;;;;;4861596;29;20898;-85
2022/04/25 02:17:10;;;;;;;15.03;7.23;;;;;;;;;;4861145;29;20591;-85
2022/04/25 02:19:40;;;;;;;19.80;7.73;;;;;;;;;;4863007;29;20768;-85
2022/04/25 02:22:09;;;;;;;15.27;6.63;;;;;;;;;;4862623;29;20526;-85
2022/04/25 02:24:37;;;;;;;16.17;6.70;;;;;;;;;;4861518;29;20444;-85
2022/04/25 02:27:04;;;;;;;16.77;6.70;;;;;;;;;;4861199;29;20444;-85
2022/04/25 02:29:32;;;;;;;18.77;7.00;;;;;;;;;;4861542;29;21003;-85
2022/04/25 02:32:00;;;;;;;15.70;6.00;;;;;;;;;;4861547;29;20538;-85
2022/04/25 02:34:31;;;;;;;10.47;4.77;;;;;;;;;;4861062;29;20955;-85
2022/04/25 02:37:00;;;;;;;12.17;5.30;;;;;;;;;;4861221;29;20535;-85
2022/04/25 02:39:27;;;;;;;12.73;5.03;;;;;;;;;;4861180;29;20447;-85
2022/04/25 02:41:54;;;;;;;11.73;5.10;;;;;;;;;;4861172;29;20478;-85
2022/04/25 02:44:22;;;;;;;13.27;4.73;;;;;;;;;;4845563;29;20542;-85
2022/04/25 02:46:49;;;;;;;12.23;5.50;;;;;;;;;;4845746;29;20447;-85
2022/04/25 02:49:17;;;;;;;13.43;5.53;;;;;;;;;;4845786;29;20479;-85
2022/04/25 02:51:44;;;;;;;13.80;4.70;;;;;;;;;;4860972;29;20491;-85
2022/04/25 02:54:11;;;;;;;14.17;5.30;;;;;;;;;;4860956;29;20454;-85
2022/04/25 02:56:38;;;;;;;15.73;4.67;;;;;;;;;;4860602;29;20529;-85
2022/04/25 02:59:07;;;;;;;14.70;4.40;;;;;;;;;;4860786;29;20453;-85
2022/04/25 03:01:34;;;;;;;12.50;3.83;;;;;;;;;;4860914;29;20471;-85
2022/04/25 03:04:02;;;;;;;17.00;6.00;;;;;;;;;;4860993;29;20431;-85
2022/04/25 03:06:30;;;;;;;26.83;6.87;;;;;;;;;;4860247;29;20817;-85
2022/04/25 03:08:57;;;;;;;11.37;5.80;;;;;;;;;;4860769;29;20550;-85
2022/04/25 03:11:27;;;;;;;11.97;4.83;;;;;;;;;;4861869;29;20440;-85
2022/04/25 03:13:55;;;;;;;10.30;5.50;;;;;;;;;;4861618;29;20447;-85
2022/04/25 03:16:23;;;;;;;7.10;3.73;;;;;;;;;;4860406;29;20523;-85
2022/04/25 03:18:50;;;;;;;16.77;4.23;;;;;;;;;;4860795;29;20939;-85
2022/04/25 03:21:18;;;;;;;8.03;4.23;;;;;;;;;;4860555;29;20780;-85
2022/04/25 03:23:45;;;;;;;23.13;5.47;;;;;;;;;;4861404;29;21014;-85
2022/04/25 03:26:12;;;;;;;9.60;5.37;;;;;;;;;;4860323;29;20454;-85
2022/04/25 03:28:39;;;;;;;18.17;5.10;;;;;;;;;;4860349;29;20531;-85
2022/04/25 03:31:07;;;;;;;17.60;6.30;;;;;;;;;;4860038;29;20534;-85
2022/04/25 03:33:35;;;;;;;17.60;5.07;;;;;;;;;;4860225;29;20508;-85
2022/04/25 03:36:03;;;;;;;9.20;4.73;;;;;;;;;;4860089;29;20934;-85
2022/04/25 03:38:30;;;;;;;27.97;4.67;;;;;;;;;;4860048;29;20451;-85
2022/04/25 03:40:57;;;;;;;13.13;4.97;;;;;;;;;;4844894;29;20484;-85
2022/04/25 03:43:24;;;;;;;14.03;5.33;;;;;;;;;;4860175;29;20483;-85
2022/04/25 03:45:52;;;;;;;12.93;4.93;;;;;;;;;;4860033;29;20459;-85
2022/04/25 03:48:20;;;;;;;12.60;4.60;;;;;;;;;;4860058;29;20534;-85
2022/04/25 03:50:48;;;;;;;7.23;3.70;;;;;;;;;;4861296;29;20443;-85
2022/04/25 03:53:15;;;;;;;10.40;4.50;;;;;;;;;;4860374;29;20442;-85
2022/04/25 03:58:28;;;;;;;10.63;4.53;;;;;;;;;;4861048;29;20543;-85
2022/04/25 04:00:55;;;;;;;14.47;5.40;;;;;;;;;;4860041;29;20895;-85
2022/04/25 04:03:23;;;;;;;10.00;4.77;;;;;;;;;;4859789;29;20530;-85
2022/04/25 04:05:50;;;;;;;16.53;4.80;;;;;;;;;;4859821;29;20446;-85
2022/04/25 04:08:18;;;;;;;5.47;3.53;;;;;;;;;;4860712;29;20485;-85
2022/04/25 04:10:45;;;;;;;16.50;3.90;;;;;;;;;;4859656;29;20812;-85
2022/04/25 04:13:12;;;;;;;13.17;3.90;;;;;;;;;;4859884;29;20471;-85
2022/04/25 04:15:40;;;;;;;14.60;4.53;;;;;;;;;;4861051;29;20538;-85
2022/04/25 04:18:08;;;;;;;12.43;4.43;;;;;;;;;;4859411;29;20459;-85
2022/04/25 04:20:35;;;;;;;10.70;4.00;;;;;;;;;;4859598;29;20811;-85
2022/04/25 04:23:03;;;;;;;10.80;4.27;;;;;;;;;;4860528;29;20504;-85
2022/04/25 04:25:32;;;;;;;11.10;4.40;;;;;;;;;;4859355;29;20558;-85
2022/04/25 04:27:59;;;;;;;11.10;3.83;;;;;;;;;;4859794;29;20447;-84
2022/04/25 04:30:26;;;;;;;12.67;4.50;;;;;;;;;;4860039;29;20969;-85
2022/04/25 04:32:54;;;;;;;10.93;3.37;;;;;;;;;;4859483;29;20452;-85
2022/04/25 04:38:07;;;;;;;8.40;4.23;;;;;;;;;;4860673;29;20454;-85
2022/04/25 04:40:35;;;;;;;15.00;3.63;;;;;;;;;;4859683;29;20526;-85
2022/04/25 04:43:02;;;;;;;8.70;4.67;;;;;;;;;;4859955;29;20432;-85
2022/04/25 04:45:30;;;;;;;6.97;3.90;;;;;;;;;;4859720;29;20442;-85
2022/04/25 04:47:57;;;;;;;7.67;4.20;;;;;;;;;;4859518;29;20483;-85
2022/04/25 04:50:24;;;;;;;10.53;3.50;;;;;;;;;;4860743;29;20447;-85
2022/04/25 04:52:52;;;;;;;7.40;3.50;;;;;;;;;;4859425;29;20447;-85
2022/04/25 04:55:20;;;;;;;12.27;4.80;;;;;;;;;;4859159;29;20486;-85
2022/04/25 04:57:47;;;;;;;7.93;3.40;;;;;;;;;;4859266;29;20493;-85
2022/04/25 05:00:15;;;;;;;10.30;4.07;;;;;;;;;;4859068;29;21022;-85
2022/04/25 05:02:43;;;;;;;7.63;4.53;;;;;;;;;;4859704;29;20507;-85
2022/04/25 05:05:12;;;;;;;10.83;4.30;;;;;;;;;;4859395;29;20447;-85
2022/04/25 05:07:39;;;;;;;7.20;3.30;;;;;;;;;;4859446;29;20522;-85
2022/04/25 05:10:06;;;;;;;9.47;4.20;;;;;;;;;;4859449;29;20507;-84
2022/04/25 05:12:47;;;;;;;6.00;3.70;;;;;;;;;;4859150;29;20538;-85
2022/04/25 05:15:15;;;;;;;8.20;4.67;;;;;;;;;;4859815;29;20815;-85
2022/04/25 05:17:42;;;;;;;13.20;4.30;;;;;;;;;;4859415;29;20885;-85
2022/04/25 05:20:12;;;;;;;7.53;3.97;;;;;;;;;;4859293;29;20490;-85
2022/04/25 05:22:40;;;;;;;12.03;4.13;;;;;;;;;;4862156;29;20538;-85
2022/04/25 05:25:08;;;;;;;5.30;3.43;;;;;;;;;;4862532;29;20482;-85
2022/04/25 05:27:38;;;;;;;11.60;3.80;;;;;;;;;;4862418;29;20450;-86
2022/04/25 05:30:06;;;;;;;7.23;4.10;;;;;;;;;;4863504;29;20449;-85
2022/04/25 05:32:46;;;;;;;12.03;4.00;;;;;;;;;;4862043;29;20977;-85
2022/04/25 05:35:14;;;;;;;5.83;3.17;;;;;;;;;;4863292;29;20451;-85
2022/04/25 05:37:41;;;;;;;9.87;4.23;;;;;;;;;;4862266;29;20558;-85
2022/04/25 05:40:09;;;;;;;9.73;4.43;;;;;;;;;;4862310;29;20943;-85
2022/04/25 05:42:36;;;;;;;7.83;4.10;;;;;;;;;;4863037;29;20550;-85
2022/04/25 05:45:03;;;;;;;13.03;4.03;;;;;;;;;;4863099;29;21171;-84
2022/04/25 05:47:31;;;;;;;17.70;4.53;;;;;;;;;;4862126;29;20445;-84
2022/04/25 05:52:44;;;;;;;8.93;3.40;;;;;;;;;;4862088;29;20470;-85
2022/04/25 05:55:11;;;;;;;6.97;3.30;;;;;;;;;;4861615;29;20577;-85
2022/04/25 05:57:43;;;;;;;6.70;3.03;;;;;;;;;;4861999;29;20511;-85
2022/04/25 06:00:11;;;;;;;4.10;3.07;;;;;;;;;;4862048;29;20452;-85
2022/04/25 06:02:39;;;;;;;8.97;3.70;;;;;;;;;;4861846;29;20451;-85
2022/04/25 06:05:06;;;;;;;7.77;3.30;;;;;;;;;;4861781;29;20864;-85
2022/04/25 06:07:34;;;;;;;6.77;3.13;;;;;;;;;;4862090;29;20931;-85
2022/04/25 06:10:01;;;;;;;13.90;4.40;;;;;;;;;;4861816;29;20995;-85
2022/04/25 06:12:29;;;;;;;10.53;4.70;;;;;;;;;;4861527;29;20551;-85
2022/04/25 06:14:57;;;;;;;6.70;3.80;;;;;;;;;;4861578;29;20475;-85
2022/04/25 06:17:24;;;;;;;8.77;4.13;;;;;;;;;;4861441;29;20571;-85
2022/04/25 06:19:52;;;;;;;13.33;4.23;;;;;;;;;;4861579;29;20475;-85
2022/04/25 06:22:20;;;;;;;15.00;4.50;;;;;;;;;;4861278;29;20447;-85
2022/04/25 06:24:47;;;;;;;9.73;4.17;;;;;;;;;;4861663;29;20446;-85
2022/04/25 06:27:14;;;;;;;8.87;3.67;;;;;;;;;;4861662;29;20439;-85
2022/04/25 06:29:44;;;;;;;8.17;4.07;;;;;;;;;;4861556;29;20526;-85
2022/04/25 06:32:12;;;;;;;8.10;3.93;;;;;;;;;;4845931;29;20483;-85
2022/04/25 06:34:39;;;;;;;10.60;5.23;;;;;;;;;;4861519;29;20451;-85
2022/04/25 06:37:07;;;;;;;10.10;4.23;;;;;;;;;;4861500;29;20479;-85
2022/04/25 06:39:34;;;;;;;9.73;4.13;;;;;;;;;;4860896;29;20903;-85
2022/04/25 06:42:01;;;;;;;12.77;4.70;;;;;;;;;;4861215;29;20447;-85
2022/04/25 06:44:30;;;;;;;10.20;4.77;;;;;;;;;;4861290;29;20434;-85
2022/04/25 06:46:58;;;;;;;10.20;4.23;;;;;;;;;;4861079;29;20443;-85
2022/04/25 06:49:25;;;;;;;10.70;4.40;;;;;;;;;;4861388;29;20432;-85
2022/04/25 06:51:56;;;;;;;10.73;5.00;;;;;;;;;;4861050;29;20491;-85
2022/04/25 06:54:24;;;;;;;13.63;4.30;;;;;;;;;;4860481;29;20826;-85
2022/04/25 06:56:54;;;;;;;9.03;4.30;;;;;;;;;;4860658;29;20590;-85
2022/04/25 06:59:22;;;;;;;13.47;4.60;;;;;;;;;;4861285;29;20522;-85
2022/04/25 07:01:50;;;;;;;6.13;4.60;;;;;;;;;;4860812;29;20448;-85
2022/04/25 07:04:17;;;;;;;12.60;6.00;;;;;;;;;;4860669;29;20443;-85
2022/04/25 07:06:44;;;;;;;12.00;5.13;;;;;;;;;;4860976;29;20931;-85
2022/04/25 07:09:17;;;;;;;12.33;5.23;;;;;;;;;;4860877;29;20455;-85
2022/04/25 07:11:44;;;;;;;13.87;4.80;;;;;;;;;;4861700;29;20432;-85
2022/04/25 07:14:14;;;;;;;11.83;5.20;;;;;;;;;;4860538;29;20962;-85
2022/04/25 07:16:44;;;;;;;13.87;5.30;;;;;;;;;;4860781;29;21006;-85
2022/04/25 07:19:18;;;;;;;15.60;6.17;;;;;;;;;;4860574;29;20530;-85
2022/04/25 07:30:05;;;;;;;10.10;5.53;;;;;;;;;;4860111;29;20454;-85
2022/04/25 07:32:40;;;;;;;10.97;6.07;;;;;;;;;;4860372;29;20817;-85
2022/04/25 07:35:07;;;;;;;17.57;6.73;;;;;;;;;;4860650;29;20514;-85
2022/04/25 07:37:35;;;;;;;13.60;6.90;;;;;;;;;;4860230;29;20863;-85
2022/04/25 07:40:02;;;;;;;13.83;6.20;;;;;;;;;;4861061;29;20454;-85
2022/04/25 07:42:31;;;;;;;9.97;5.27;;;;;;;;;;4859810;29;20870;-85
2022/04/25 07:45:00;;;;;;;13.80;6.43;;;;;;;;;;4859524;29;20946;-85
2022/04/25 07:47:27;;;;;;;15.13;5.80;;;;;;;;;;4860044;29;20939;-85
2022/04/25 07:49:55;;;;;;;16.03;6.77;;;;;;;;;;4861204;29;20809;-85
2022/04/25 07:52:22;;;;;;;24.43;8.97;;;;;;;;;;4860030;29;20555;-85
2022/04/25 07:54:51;;;;;;;18.37;7.60;;;;;;;;;;4859877;29;20527;-85
2022/04/25 07:57:23;;;;;;;17.27;8.00;;;;;;;;;;4845404;29;20487;-85
2022/04/25 07:59:51;;;;;;;20.83;9.40;;;;;;;;;;4859709;29;20467;-85
2022/04/25 08:02:19;;;;;;;27.60;8.53;;;;;;;;;;4860116;29;20927;-85
2022/04/25 08:04:46;;;;;;;16.90;8.10;;;;;;;;;;4861300;29;20430;-85
2022/04/25 08:07:14;;;;;;;21.93;8.23;;;;;;;;;;4844758;29;20439;-85
2022/04/25 08:09:41;;;;;;;15.10;4.93;;;;;;;;;;4859908;29;20448;-85
2022/04/25 08:17:59;;;;;;;17.47;4.20;;;;;;;;;;4860072;29;20519;-85
2022/04/25 08:20:28;;;;;;;29.13;4.77;;;;;;;;;;4859751;29;20537;-85
2022/04/25 08:22:58;;;;;;;23.37;4.17;;;;;;;;;;4859697;29;20978;-85
2022/04/25 08:25:26;;;;;;;13.23;3.90;;;;;;;;;;4844431;29;20850;-85
2022/04/25 08:27:53;;;;;;;22.83;4.83;;;;;;;;;;4859949;29;20472;-85
2022/04/25 08:30:21;;;;;;;11.23;3.53;;;;;;;;;;4859702;29;20467;-85
2022/04/25 08:32:49;;;;;;;10.90;3.50;;;;;;;;;;4859765;29;20522;-85
2022/04/25 08:35:16;;;;;;;23.17;8.00;;;;;;;;;;4860663;29;20911;-85
2022/04/25 08:37:44;;;;;;;13.43;3.30;;;;;;;;;;4860763;29;20953;-85
2022/04/25 08:40:11;;;;;;;14.40;3.37;;;;;;;;;;4859440;29;20507;-85
2022/04/25 08:42:39;;;;;;;10.20;2.93;;;;;;;;;;4859500;29;20454;-84
2022/04/25 08:45:11;;;;;;;12.03;2.87;;;;;;;;;;4859758;29;20455;-85
2022/04/25 08:47:44;;;;;;;13.03;3.30;;;;;;;;;;4844325;29;20443;-85
2022/04/25 08:50:12;;;;;;;15.13;3.10;;;;;;;;;;4858999;29;20448;-85
2022/04/25 08:52:40;;;;;;;13.90;2.97;;;;;;;;;;4859468;29;20939;-85
2022/04/25 08:55:08;;;;;;;15.93;4.30;;;;;;;;;;4860198;29;20486;-85
2022/04/25 08:57:38;;;;;;;18.83;3.33;;;;;;;;;;4864080;29;21033;-85
2022/04/25 09:00:06;;;;;;;18.10;3.43;;;;;;;;;;4864060;29;20794;-85
2022/04/25 09:02:34;;;;;;;14.40;2.77;;;;;;;;;;4862929;29;20435;-85
2022/04/25 09:05:02;;;;;;;11.63;2.80;;;;;;;;;;4864412;29;20871;-85
2022/04/25 09:07:29;;;;;;;7.97;2.50;;;;;;;;;;4847543;29;20448;-85
2022/04/25 09:09:57;;;;;;;9.63;2.10;;;;;;;;;;4847492;29;20533;-85
2022/04/25 09:12:27;;;;;;;9.27;2.00;;;;;;;;;;4863152;29;20978;-84
2022/04/25 09:14:56;;;;;;;7.70;2.23;;;;;;;;;;4862431;29;20455;-85
2022/04/25 09:17:43;;;;;;;12.23;2.03;;;;;;;;;;4862840;29;20515;-85
2022/04/25 09:20:11;;;;;;;11.70;2.00;;;;;;;;;;4862902;29;20432;-85
2022/04/25 09:22:40;;;;;;;12.90;2.47;;;;;;;;;;4863833;29;20937;-85
2022/04/25 09:25:09;;;;;;;15.03;2.70;;;;;;;;;;4863241;29;20533;-85
2022/04/25 09:28:11;;;;;;;10.70;1.83;;;;;;;;;;4862406;29;20476;-85
2022/04/25 09:30:55;;;;;;;6.70;2.10;;;;;;;;;;4863429;29;20959;-85
2022/04/25 09:33:23;;;;;;;10.23;2.30;;;;;;;;;;4862781;29;20443;-85
2022/04/25 09:35:54;;;;;;;7.10;1.80;;;;;;;;;;4847059;29;20951;-85
2022/04/25 09:38:32;;;;;;;12.33;1.93;;;;;;;;;;4862596;29;20978;-85
2022/04/25 09:41:00;;;;;;;9.57;1.83;;;;;;;;;;4863408;29;20458;-85
2022/04/25 09:43:35;;;;;;;10.87;2.47;;;;;;;;;;4862146;29;20451;-85
2022/04/25 09:46:03;;;;;;;6.97;2.00;;;;;;;;;;4862194;29;20545;-84
2022/04/25 09:48:30;;;;;;;13.03;2.13;;;;;;;;;;4862283;29;20444;-85
2022/04/25 09:51:02;;;;;;;9.67;2.00;;;;;;;;;;4863704;29;20431;-85
2022/04/25 09:53:41;;;;;;;7.23;1.60;;;;;;;;;;4863322;29;20447;-85
2022/04/25 09:56:34;;;;;;;10.40;1.83;;;;;;;;;;4863029;29;20472;-85
2022/04/25 09:59:05;;;;;;;9.53;2.13;;;;;;;;;;4862895;29;20922;-85
2022/04/25 10:01:36;;;;;;;4.37;1.30;;;;;;;;;;4863055;29;20496;-85
2022/04/25 10:04:04;;;;;;;8.67;1.73;;;;;;;;;;4862071;29;20512;-85
2022/04/25 10:06:32;;;;;;;4.60;1.30;;;;;;;;;;4861448;29;20927;-85
2022/04/25 10:09:00;;;;;;;9.10;1.70;;;;;;;;;;4862916;29;20990;-85
2022/04/25 10:11:32;;;;;;;7.80;1.50;;;;;;;;;;4861793;29;20443;-84
2022/04/25 10:13:59;;;;;;;9.67;1.50;;;;;;;;;;4861829;29;20496;-85
2022/04/25 10:16:28;;;;;;;11.73;2.27;;;;;;;;;;4861797;29;20447;-85
2022/04/25 10:18:56;;;;;;;12.13;2.07;;;;;;;;;;4861441;29;20554;-85
2022/04/25 10:21:23;;;;;;;5.80;1.40;;;;;;;;;;4861542;29;20447;-85
2022/04/25 10:23:50;;;;;;;5.37;1.47;;;;;;;;;;4861467;29;20450;-85
2022/04/25 10:26:17;;;;;;;9.77;1.80;;;;;;;;;;4861466;29;20452;-85
2022/04/25 10:28:55;;;;;;;12.80;1.90;;;;;;;;;;4862368;29;20448;-85
2022/04/25 10:31:41;;;;;;;6.33;1.40;;;;;;;;;;4861480;29;20534;-85
2022/04/25 10:34:09;;;;;;;12.13;4.27;;;;;;;;;;4861272;29;20447;-85
2022/04/25 10:36:36;;;;;;;24.83;6.40;;;;;;;;;;4861170;29;20487;-85
2022/04/25 10:39:20;;;;;;;11.53;4.03;;;;;;;;;;4862314;29;20514;-85
2022/04/25 10:44:43;;;;;;;11.27;3.57;;;;;;;;;;4862324;29;20511;-85
2022/04/25 10:47:14;;;;;;;14.53;5.07;;;;;;;;;;4862180;29;20451;-85
2022/04/25 10:49:46;;;;;;;7.40;1.80;;;;;;;;;;4862054;29;20475;-85
2022/04/25 10:52:55;;;;;;;7.17;1.70;;;;;;;;;;4861040;29;20447;-85
2022/04/25 10:55:30;;;;;;;10.10;1.77;;;;;;;;;;4823048;29;20544;-85
2022/04/25 10:58:03;;;;;;;10.17;1.80;;;;;;;;;;4823382;29;20496;-85
2022/04/25 11:00:40;;;;;;;4.13;1.60;;;;;;;;;;4823489;29;20632;-85
2022/04/25 11:03:11;;;;;;;22.73;2.90;;;;;;;;;;4823307;29;20455;-85
2022/04/25 11:05:41;;;;;;;10.47;1.57;;;;;;;;;;4808225;29;20456;-85
2022/04/25 11:08:18;;;;;;;7.43;1.60;;;;;;;;;;4823165;29;20437;-85
2022/04/25 11:10:46;;;;;;;10.17;1.63;;;;;;;;;;4823333;29;20539;-85
2022/04/25 11:13:20;;;;;;;6.40;1.43;;;;;;;;;;4808925;29;20514;-85
2022/04/25 11:15:48;;;;;;;7.07;1.40;;;;;;;;;;4808058;29;20438;-85
2022/04/25 11:18:34;;;;;;;4.73;1.40;;;;;;;;;;4822286;29;20966;-86
2022/04/25 11:21:08;;;;;;;13.23;2.07;;;;;;;;;;4822924;29;20445;-85
2022/04/25 11:23:47;;;;;;;12.10;2.00;;;;;;;;;;4823024;29;20449;-85
2022/04/25 11:26:23;;;;;;;6.80;1.80;;;;;;;;;;4807975;29;20445;-85
2022/04/25 11:29:04;;;;;;;4.57;1.50;;;;;;;;;;4823126;29;20489;-85
2022/04/25 11:31:31;;;;;;;5.67;1.60;;;;;;;;;;4851780;29;20427;-85
2022/04/25 11:34:02;;;;;;;6.87;1.50;;;;;;;;;;4861196;29;20474;-85
2022/04/25 11:36:31;;;;;;;6.50;1.43;;;;;;;;;;4845349;29;20447;-85
2022/04/25 11:41:45;;;;;;;11.83;1.80;;;;;;;;;;4860374;29;20479;-85
2022/04/25 11:44:12;;;;;;;8.73;1.30;;;;;;;;;;4860667;29;20428;-85
2022/04/25 11:46:41;;;;;;;6.53;1.30;;;;;;;;;;4860295;29;20908;-85
2022/04/25 11:49:09;;;;;;;12.23;1.77;;;;;;;;;;4860350;29;20431;-85
2022/04/25 11:51:39;;;;;;;8.80;1.97;;;;;;;;;;4861186;29;20957;-85
2022/04/25 11:54:07;;;;;;;8.40;1.37;;;;;;;;;;4859977;29;20995;-85
2022/04/25 11:56:35;;;;;;;6.40;1.50;;;;;;;;;;4859879;29;20471;-85
2022/04/25 11:59:07;;;;;;;8.83;1.80;;;;;;;;;;4859938;29;20495;-85
2022/04/25 12:01:38;;;;;;;7.80;1.40;;;;;;;;;;4860014;29;20452;-85
2022/04/25 12:04:18;;;;;;;6.83;1.97;;;;;;;;;;4860291;29;20467;-85
2022/04/25 12:07:00;;;;;;;10.43;1.37;;;;;;;;;;4859833;29;20443;-85
2022/04/25 12:18:16;;;;;;;8.70;1.87;;;;;;;;;;4860770;29;20490;-85
2022/04/25 12:20:51;;;;;;;4.57;1.30;;;;;;;;;;4859724;29;20538;-85
2022/04/25 12:23:19;;;;;;;5.83;1.00;;;;;;;;;;4844440;29;20457;-85
2022/04/25 12:25:47;;;;;;;7.37;1.17;;;;;;;;;;4859789;29;20444;-85
2022/04/25 12:28:15;;;;;;;6.57;1.37;;;;;;;;;;4859636;29;20814;-85
2022/04/25 12:30:55;;;;;;;9.13;1.20;;;;;;;;;;4861010;29;20476;-85
2022/04/25 12:33:24;;;;;;;3.83;1.00;;;;;;;;;;4863274;29;20481;-85
2022/04/25 12:36:14;;;;;;;8.60;1.47;;;;;;;;;;4863179;29;20483;-85
2022/04/25 12:38:43;;;;;;;5.33;1.27;;;;;;;;;;4832838;29;20574;-85
2022/04/25 12:41:18;;;;;;;6.80;1.43;;;;;;;;;;4863383;29;20444;-85
2022/04/25 12:43:46;;;;;;;5.87;1.17;;;;;;;;;;4863392;29;20522;-85
2022/04/25 12:46:14;;;;;;;8.43;1.57;;;;;;;;;;4847968;29;20443;-85
2022/04/25 12:48:58;;;;;;;5.83;1.00;;;;;;;;;;4863490;29;20447;-85
2022/04/25 12:51:45;;;;;;;4.83;1.20;;;;;;;;;;4863169;29;20811;-85
2022/04/25 12:54:31;;;;;;;8.30;1.60;;;;;;;;;;4863804;29;20447;-85
2022/04/25 12:57:38;;;;;;;3.40;1.23;;;;;;;;;;4862911;29;20562;-85
2022/04/25 13:00:06;;;;;;;6.33;1.20;;;;;;;;;;4825219;29;20960;-85
2022/04/25 13:02:37;;;;;;;7.20;0.90;;;;;;;;;;4810380;29;20433;-85
2022/04/25 13:05:06;;;;;;;7.90;1.17;;;;;;;;;;4825264;29;20442;-85
2022/04/25 13:07:37;;;;;;;3.83;1.00;;;;;;;;;;4825161;29;20610;-85
2022/04/25 13:10:05;;;;;;;2.50;1.20;;;;;;;;;;4810120;29;20453;-85
2022/04/25 13:12:33;;;;;;;3.03;1.30;;;;;;;;;;4824902;29;20861;-85
2022/04/25 13:15:01;;;;;;;6.33;1.07;;;;;;;;;;4824662;29;21016;-85
2022/04/25 13:17:36;;;;;;;2.87;0.80;;;;;;;;;;4810977;29;20465;-85
2022/04/25 13:20:04;;;;;;;7.70;1.33;;;;;;;;;;4824992;29;21028;-85
2022/04/25 13:22:33;;;;;;;3.27;1.20;;;;;;;;;;4825008;29;20473;-85
2022/04/25 13:25:02;;;;;;;3.73;0.90;;;;;;;;;;4825003;29;20449;-85
2022/04/25 13:27:32;;;;;;;6.00;1.53;;;;;;;;;;4810123;29;20460;-85
2022/04/25 13:30:00;;;;;;;5.83;1.00;;;;;;;;;;4829991;29;20976;-85
2022/04/25 13:32:28;;;;;;;6.60;1.07;;;;;;;;;;4862911;29;20438;-85
2022/04/25 13:34:55;;;;;;;5.60;0.97;;;;;;;;;;4862049;29;20451;-85
2022/04/25 13:37:23;;;;;;;4.10;1.10;;;;;;;;;;4847127;29;20443;-85
2022/04/25 13:39:50;;;;;;;4.10;1.00;;;;;;;;;;4862186;29;20490;-85
2022/04/25 13:42:18;;;;;;;7.03;1.03;;;;;;;;;;4861170;29;20579;-85
2022/04/25 13:44:46;;;;;;;4.10;1.13;;;;;;;;;;4847153;29;20444;-85
2022/04/25 13:47:14;;;;;;;4.00;0.90;;;;;;;;;;4846646;29;20995;-85
2022/04/25 13:49:43;;;;;;;5.20;1.20;;;;;;;;;;4862367;29;20443;-85
2022/04/25 13:52:11;;;;;;;4.90;1.10;;;;;;;;;;4846980;29;20470;-85
2022/04/25 13:54:41;;;;;;;11.23;1.70;;;;;;;;;;4862098;29;20439;-85
2022/04/25 13:57:10;;;;;;;5.67;1.43;;;;;;;;;;4861977;29;20483;-86
2022/04/25 13:59:43;;;;;;;5.50;1.53;;;;;;;;;;4861887;29;20487;-85
2022/04/25 14:04:57;;;;;;;3.60;1.17;;;;;;;;;;4862391;29;20447;-85
2022/04/25 14:07:25;;;;;;;5.77;0.70;;;;;;;;;;4846549;29;20455;-85
2022/04/25 14:09:52;;;;;;;3.30;1.20;;;;;;;;;;4846753;29;20488;-85
2022/04/25 14:12:20;;;;;;;6.90;1.70;;;;;;;;;;4862824;29;20443;-85
2022/04/25 14:14:48;;;;;;;5.03;1.20;;;;;;;;;;4862951;29;20795;-85
2022/04/25 14:17:15;;;;;;;7.40;1.80;;;;;;;;;;4846392;29;20813;-85
2022/04/25 14:19:43;;;;;;;4.00;1.10;;;;;;;;;;4862539;29;20487;-85
2022/04/25 14:22:10;;;;;;;6.53;1.10;;;;;;;;;;4861672;29;20435;-85
2022/04/25 14:24:37;;;;;;;4.13;1.27;;;;;;;;;;4861501;29;20448;-85
2022/04/25 14:27:04;;;;;;;2.63;1.00;;;;;;;;;;4861707;29;20969;-85
2022/04/25 14:29:32;;;;;;;9.67;2.50;;;;;;;;;;4861323;29;20447;-85
2022/04/25 14:32:00;;;;;;;3.87;1.00;;;;;;;;;;4861607;29;20440;-85
2022/04/25 14:34:27;;;;;;;4.90;1.50;;;;;;;;;;4862367;29;20454;-85
2022/04/25 14:36:55;;;;;;;5.17;0.80;;;;;;;;;;4861146;29;20453;-85
2022/04/25 14:39:22;;;;;;;3.50;1.00;;;;;;;;;;4860980;29;20579;-85
2022/04/25 14:41:50;;;;;;;1.77;0.63;;;;;;;;;;4861480;29;20439;-85
2022/04/25 14:44:19;;;;;;;3.90;1.37;;;;;;;;;;4862360;29;20856;-85
2022/04/25 14:46:46;;;;;;;3.87;0.93;;;;;;;;;;4861118;29;20451;-85
2022/04/25 14:49:16;;;;;;;3.53;0.90;;;;;;;;;;4861357;29;20956;-85
2022/04/25 14:54:35;;;;;;;2.90;0.80;;;;;;;;;;4861872;29;20455;-85
2022/04/25 14:57:03;;;;;;;2.20;0.97;;;;;;;;;;4860792;29;21025;-85
2022/04/25 14:59:31;;;;;;;2.40;0.80;;;;;;;;;;4860839;29;20490;-85
2022/04/25 15:02:00;;;;;;;4.03;0.83;;;;;;;;;;4845880;29;20440;-85
2022/04/25 15:04:29;;;;;;;3.20;0.90;;;;;;;;;;4862120;29;20443;-85
2022/04/25 15:06:58;;;;;;;5.50;1.00;;;;;;;;;;4860749;29;20452;-85
2022/04/25 15:09:27;;;;;;;7.30;1.03;;;;;;;;;;4845504;29;20970;-85
2022/04/25 15:11:54;;;;;;;7.03;1.03;;;;;;;;;;4845434;29;20522;-85
2022/04/25 15:14:23;;;;;;;3.67;0.90;;;;;;;;;;4860668;29;20959;-85
2022/04/25 15:16:50;;;;;;;3.73;1.00;;;;;;;;;;4860557;29;20444;-85
2022/04/25 15:19:17;;;;;;;4.30;0.60;;;;;;;;;;4860700;29;20483;-85
2022/04/25 15:21:45;;;;;;;5.50;0.90;;;;;;;;;;4860304;29;20454;-85
2022/04/25 15:24:13;;;;;;;5.73;1.30;;;;;;;;;;4860484;29;20870;-85
2022/04/25 15:26:40;;;;;;;3.73;1.17;;;;;;;;;;4861344;29;20505;-85
2022/04/25 15:29:08;;;;;;;6.73;1.17;;;;;;;;;;4860301;29;20448;-85
2022/04/25 15:31:35;;;;;;;7.17;1.10;;;;;;;;;;4860126;29;20467;-85
2022/04/25 15:34:03;;;;;;;6.03;1.17;;;;;;;;;;4860410;29;20440;-85